createdAt,value
2022-09-04T00:01:10.330Z,43.20
2022-09-04T00:16:11.862Z,43.30
2022-09-04T00:31:13.437Z,43.40
2022-09-04T00:46:15.022Z,43.60
2022-09-04T01:01:16.615Z,43.60
2022-09-04T01:16:18.201Z,43.70
2022-09-04T01:31:19.748Z,43.90
2022-09-04T01:46:21.278Z,43.90
2022-09-04T02:01:22.822Z,44.00
2022-09-04T02:16:24.452Z,44.20
2022-09-04T02:31:26.008Z,44.20
2022-09-04T02:46:27.553Z,44.40
2022-09-04T03:01:29.069Z,44.40
2022-09-04T03:16:30.612Z,44.50
2022-09-04T03:31:32.185Z,44.60
2022-09-04T03:46:33.793Z,44.70
2022-09-04T04:01:35.304Z,44.80
2022-09-04T04:16:36.834Z,44.90
2022-09-04T04:31:39.611Z,45.00
2022-09-04T04:46:41.289Z,45.10
2022-09-04T05:01:42.918Z,45.10
2022-09-04T05:16:44.482Z,45.20
2022-09-04T05:31:45.996Z,45.30
2022-09-04T05:46:51.635Z,45.40
2022-09-04T06:01:53.712Z,45.50
2022-09-04T06:16:55.238Z,45.50
2022-09-04T06:31:56.721Z,45.60
2022-09-04T06:46:58.281Z,45.60
2022-09-04T07:01:59.880Z,45.70
2022-09-04T07:17:01.465Z,45.80
2022-09-04T07:32:02.954Z,45.70
2022-09-04T07:47:04.434Z,45.70
2022-09-04T08:02:06.033Z,45.80
2022-09-04T08:17:07.594Z,46.00
2022-09-04T08:32:09.083Z,46.00
2022-09-04T08:47:10.590Z,46.00
2022-09-04T09:02:12.140Z,45.90
2022-09-04T09:17:13.664Z,45.80
2022-09-04T09:32:15.155Z,45.70
2022-09-04T09:47:16.637Z,45.60
2022-09-04T10:02:18.148Z,45.50
2022-09-04T10:17:19.674Z,45.40
2022-09-04T10:32:21.167Z,45.20
2022-09-04T10:47:22.663Z,45.00
2022-09-04T11:02:24.197Z,44.90
2022-09-04T11:17:25.686Z,46.00
2022-09-04T11:32:27.179Z,43.80
2022-09-04T11:47:28.668Z,41.20
2022-09-04T12:02:30.189Z,37.50
2022-09-04T12:17:31.705Z,38.20
2022-09-04T12:32:33.189Z,37.40
2022-09-04T12:47:34.661Z,37.70
2022-09-04T13:02:36.492Z,38.10
2022-09-04T13:17:38.049Z,39.00
2022-09-04T13:32:39.532Z,39.00
2022-09-04T13:47:41.038Z,39.30
2022-09-04T14:02:42.564Z,40.00
2022-09-04T14:17:44.066Z,40.30
2022-09-04T14:32:45.565Z,40.70
2022-09-04T14:47:47.058Z,41.00
2022-09-04T15:02:48.546Z,41.50
2022-09-04T15:17:50.032Z,41.70
2022-09-04T15:32:51.515Z,41.90
2022-09-04T15:47:52.993Z,42.20
2022-09-04T16:02:54.667Z,43.40
2022-09-04T16:17:56.319Z,42.80
2022-09-04T16:32:57.796Z,42.90
2022-09-04T16:48:09.618Z,43.20
2022-09-04T17:03:20.734Z,43.30
2022-09-04T17:18:22.502Z,43.40
2022-09-04T17:40:01.790Z,44.10
2022-09-04T17:48:45.542Z,44.30
2022-09-04T18:04:12.130Z,44.40
2022-09-04T18:19:08.506Z,44.60
2022-09-04T18:37:19.638Z,44.70
2022-09-04T18:50:45.999Z,45.10
2022-09-04T19:04:52.914Z,45.30
2022-09-04T19:19:54.394Z,45.90
2022-09-04T19:34:57.750Z,46.10
2022-09-04T19:53:17.922Z,46.40
2022-09-04T20:05:20.702Z,46.60
2022-09-04T20:20:22.238Z,46.70
2022-09-04T20:35:33.375Z,47.00
2022-09-04T20:52:52.039Z,47.20
2022-09-04T21:06:07.050Z,47.30
2022-09-04T21:21:09.035Z,47.40
2022-09-04T21:36:26.379Z,47.60
2022-09-04T21:51:29.401Z,47.90
2022-09-04T22:07:11.045Z,47.90
2022-09-04T22:21:52.416Z,47.90
2022-09-04T22:37:00.918Z,48.20
2022-09-04T22:52:02.676Z,48.10
2022-09-04T23:13:47.825Z,48.10
2022-09-04T23:26:51.088Z,49.20
2022-09-04T23:37:59.964Z,48.30
2022-09-04T23:53:02.223Z,48.30
